Aghajari Airport

OIAG · Khuzestan, 伊朗

罗盘
风向 的 Aghajari Airport 13/31
风: 2 kt, 1 beaufort

1 kt

1 kt
改变
0 ft 1.000 2.000 3.000 4.000 5.000
Cloud Cloud
FEW 3.500
Cloud Cloud Cloud Cloud Cloud Cloud
BKN 4.000
METAR OIAG 241300Z VRB02KT 8000 TS FEW035CB BKN040 36/10 Q1002

METAR Aghajari Airport - OIAG/AKW

Aghajari Airport是,伊朗中的中型机场。 该机场位于纬度30,74545和经度49,67610。 该机场有一条跑道: 13/31. 本场的ICAO机场代码为OIAG。 该机场的IATA代码为AKW。 机场在Tehran FIR中。

该航空气象观测是针对Aghajari Airport在2024年4月24日 16:30, 当地时间进行的。

机场观察

可变方向的风很小或没有风。

可见度为8 km。

有几云 积雨云在3.500 ft的高度 和 碎云在4.000 ft的高度。 破损或更高的上限为4.000 ft。

当前天气为雷暴 。 温度和风寒是36 °C。 露点为10 °C,相对湿度为20%。 海平面上的气压为1002 hPa (QNH)。

白天

今天,太阳从05:33升起,在18:45降落。 这适用于Aghajari Airport,世界夏令时可能有所不同。 当地时间与世界标准时间之间的时差为+3 小时 30 分钟。 夏令时目前正在进行中。

公司介绍

我们没有关于这个机场的公司信息。

体会

到Vliegles.nl去找飞行课程,跳伞和其他飞行体验。 浏览页面,了解Aghajari Airport附近所有可用的活动。 你也可以使用搜索功能来寻找你所在地附近的特定飞行课程、跳伞或其他飞行体验。

跑道

Id 标题 侧风 逆风 侧风 %
13/31 136°-316° 1 kt 1 kt 69 %

逆风成分最大的方向会被突出显示,并用于横风计算。 这并不一定意味着这个方向在使用。

乌云

3.500 ft FEW 几云 积雨云
4.000 ft BKN 碎云

温度 & 天气

天气 雷暴
温度 36 °C
露点 10 °C
相对湿度 20%
Kp-index 0 (0-9)

白天

日出
05:33
中午
12:09
日落
18:45 (1:54)

小工具

你想在你的网站上有一个关于Aghajari Airport的当前航空天气(METAR)的小部件吗?

显示HTML代码
报告变更